sensor_id;sensor_type;location;lat;lon;timestamp;temperature;humidity
22734;DHT22;11534;51.994;5.692;2023-11-21T00:00:49;8.30;99.90
22734;DHT22;11534;51.994;5.692;2023-11-21T00:03:14;8.30;99.90
22734;DHT22;11534;51.994;5.692;2023-11-21T00:05:41;8.30;99.90
22734;DHT22;11534;51.994;5.692;2023-11-21T00:08:07;8.30;99.90
22734;DHT22;11534;51.994;5.692;2023-11-21T00:10:34;8.20;99.90
22734;DHT22;11534;51.994;5.692;2023-11-21T00:13:00;8.30;99.90
22734;DHT22;11534;51.994;5.692;2023-11-21T00:15:28;8.20;99.90
22734;DHT22;11534;51.994;5.692;2023-11-21T00:17:53;8.20;99.90
22734;DHT22;11534;51.994;5.692;2023-11-21T00:20:20;8.20;99.90
22734;DHT22;11534;51.994;5.692;2023-11-21T00:22:45;8.20;99.90
22734;DHT22;11534;51.994;5.692;2023-11-21T00:25:12;8.20;99.90
22734;DHT22;11534;51.994;5.692;2023-11-21T00:27:39;8.10;99.90
22734;DHT22;11534;51.994;5.692;2023-11-21T00:30:05;8.10;99.90
22734;DHT22;11534;51.994;5.692;2023-11-21T00:32:32;8.10;99.90
22734;DHT22;11534;51.994;5.692;2023-11-21T00:34:57;8.10;99.90
22734;DHT22;11534;51.994;5.692;2023-11-21T00:37:24;8.10;99.90
22734;DHT22;11534;51.994;5.692;2023-11-21T00:39:50;8.10;99.90
22734;DHT22;11534;51.994;5.692;2023-11-21T00:42:16;8.10;99.90
22734;DHT22;11534;51.994;5.692;2023-11-21T00:44:41;8.00;99.90
22734;DHT22;11534;51.994;5.692;2023-11-21T00:47:07;8.00;99.90
22734;DHT22;11534;51.994;5.692;2023-11-21T00:49:33;8.00;99.90
22734;DHT22;11534;51.994;5.692;2023-11-21T00:51:59;8.00;99.90
22734;DHT22;11534;51.994;5.692;2023-11-21T00:54:24;7.90;99.90
22734;DHT22;11534;51.994;5.692;2023-11-21T00:56:50;8.00;99.90
22734;DHT22;11534;51.994;5.692;2023-11-21T00:59:15;7.90;99.90
22734;DHT22;11534;51.994;5.692;2023-11-21T01:01:41;7.90;99.90
22734;DHT22;11534;51.994;5.692;2023-11-21T01:04:07;7.90;99.90
22734;DHT22;11534;51.994;5.692;2023-11-21T01:06:33;7.90;99.90
22734;DHT22;11534;51.994;5.692;2023-11-21T01:08:58;7.90;99.90
22734;DHT22;11534;51.994;5.692;2023-11-21T01:11:24;7.80;99.90
22734;DHT22;11534;51.994;5.692;2023-11-21T01:13:50;7.80;99.90
22734;DHT22;11534;51.994;5.692;2023-11-21T01:16:15;7.90;99.90
22734;DHT22;11534;51.994;5.692;2023-11-21T01:18:41;7.80;99.90
22734;DHT22;11534;51.994;5.692;2023-11-21T01:21:06;7.80;99.90
22734;DHT22;11534;51.994;5.692;2023-11-21T01:23:33;7.80;99.90
22734;DHT22;11534;51.994;5.692;2023-11-21T01:25:58;7.80;99.90
22734;DHT22;11534;51.994;5.692;2023-11-21T01:28:24;7.80;99.90
22734;DHT22;11534;51.994;5.692;2023-11-21T01:30:50;7.80;99.90
22734;DHT22;11534;51.994;5.692;2023-11-21T01:33:15;7.80;99.90
22734;DHT22;11534;51.994;5.692;2023-11-21T01:35:42;7.80;99.90
22734;DHT22;11534;51.994;5.692;2023-11-21T01:38:08;7.90;99.90
22734;DHT22;11534;51.994;5.692;2023-11-21T01:40:34;7.90;99.90
22734;DHT22;11534;51.994;5.692;2023-11-21T01:43:00;8.00;99.90
22734;DHT22;11534;51.994;5.692;2023-11-21T01:45:28;7.90;99.90
22734;DHT22;11534;51.994;5.692;2023-11-21T01:47:56;8.00;99.90
22734;DHT22;11534;51.994;5.692;2023-11-21T01:50:24;8.00;99.90
22734;DHT22;11534;51.994;5.692;2023-11-21T01:52:50;8.00;99.90
22734;DHT22;11534;51.994;5.692;2023-11-21T01:55:17;8.00;99.90
22734;DHT22;11534;51.994;5.692;2023-11-21T01:57:44;8.00;99.90
22734;DHT22;11534;51.994;5.692;2023-11-21T02:00:11;8.00;99.90
22734;DHT22;11534;51.994;5.692;2023-11-21T02:02:47;8.00;99.90
22734;DHT22;11534;51.994;5.692;2023-11-21T02:05:15;8.00;99.90
22734;DHT22;11534;51.994;5.692;2023-11-21T02:07:42;8.00;99.90
22734;DHT22;11534;51.994;5.692;2023-11-21T02:10:09;7.90;99.90
22734;DHT22;11534;51.994;5.692;2023-11-21T02:12:35;8.00;99.90
22734;DHT22;11534;51.994;5.692;2023-11-21T02:15:02;8.00;99.90
22734;DHT22;11534;51.994;5.692;2023-11-21T02:17:30;8.00;99.90
22734;DHT22;11534;51.994;5.692;2023-11-21T02:19:58;7.90;99.90
22734;DHT22;11534;51.994;5.692;2023-11-21T02:22:26;7.90;99.90
22734;DHT22;11534;51.994;5.692;2023-11-21T02:24:54;7.90;99.90
22734;DHT22;11534;51.994;5.692;2023-11-21T02:27:20;7.90;99.90
22734;DHT22;11534;51.994;5.692;2023-11-21T02:29:48;7.90;99.90
22734;DHT22;11534;51.994;5.692;2023-11-21T02:32:14;7.80;99.90
22734;DHT22;11534;51.994;5.692;2023-11-21T02:34:40;7.90;99.90
22734;DHT22;11534;51.994;5.692;2023-11-21T02:37:05;7.90;99.90
22734;DHT22;11534;51.994;5.692;2023-11-21T02:39:31;7.80;99.90
22734;DHT22;11534;51.994;5.692;2023-11-21T02:41:57;7.90;99.90
22734;DHT22;11534;51.994;5.692;2023-11-21T02:44:23;7.90;99.90
22734;DHT22;11534;51.994;5.692;2023-11-21T02:46:48;7.80;99.90
22734;DHT22;11534;51.994;5.692;2023-11-21T02:49:14;7.90;99.90
22734;DHT22;11534;51.994;5.692;2023-11-21T02:51:40;7.90;99.90
22734;DHT22;11534;51.994;5.692;2023-11-21T02:54:06;7.90;99.90
22734;DHT22;11534;51.994;5.692;2023-11-21T02:56:33;7.90;99.90
22734;DHT22;11534;51.994;5.692;2023-11-21T02:59:00;7.90;99.90
22734;DHT22;11534;51.994;5.692;2023-11-21T03:01:26;7.90;99.90
22734;DHT22;11534;51.994;5.692;2023-11-21T03:03:53;8.00;99.90
22734;DHT22;11534;51.994;5.692;2023-11-21T03:06:22;8.00;99.90
22734;DHT22;11534;51.994;5.692;2023-11-21T03:08:48;8.00;99.90
22734;DHT22;11534;51.994;5.692;2023-11-21T03:11:13;8.00;99.90
22734;DHT22;11534;51.994;5.692;2023-11-21T03:13:42;8.00;99.90
22734;DHT22;11534;51.994;5.692;2023-11-21T03:16:09;8.00;99.90
22734;DHT22;11534;51.994;5.692;2023-11-21T03:18:36;8.00;99.90
22734;DHT22;11534;51.994;5.692;2023-11-21T03:21:02;8.00;99.90
22734;DHT22;11534;51.994;5.692;2023-11-21T03:23:28;8.00;99.90
22734;DHT22;11534;51.994;5.692;2023-11-21T03:25:53;8.00;99.90
22734;DHT22;11534;51.994;5.692;2023-11-21T03:28:19;8.00;99.90
22734;DHT22;11534;51.994;5.692;2023-11-21T03:30:44;8.00;99.90
22734;DHT22;11534;51.994;5.692;2023-11-21T03:33:10;8.00;99.90
22734;DHT22;11534;51.994;5.692;2023-11-21T03:35:36;8.00;99.90
22734;DHT22;11534;51.994;5.692;2023-11-21T03:38:02;8.10;99.90
22734;DHT22;11534;51.994;5.692;2023-11-21T03:40:27;8.00;99.90
22734;DHT22;11534;51.994;5.692;2023-11-21T03:42:53;8.10;99.90
22734;DHT22;11534;51.994;5.692;2023-11-21T03:45:18;8.10;99.90
22734;DHT22;11534;51.994;5.692;2023-11-21T03:47:44;8.10;99.90
22734;DHT22;11534;51.994;5.692;2023-11-21T03:50:10;8.10;99.90
22734;DHT22;11534;51.994;5.692;2023-11-21T03:52:36;8.10;99.90
22734;DHT22;11534;51.994;5.692;2023-11-21T03:55:02;8.20;99.90
22734;DHT22;11534;51.994;5.692;2023-11-21T03:57:28;8.20;99.90
22734;DHT22;11534;51.994;5.692;2023-11-21T03:59:53;8.10;99.90
22734;DHT22;11534;51.994;5.692;2023-11-21T04:02:19;8.20;99.90
22734;DHT22;11534;51.994;5.692;2023-11-21T04:04:45;8.20;99.90
22734;DHT22;11534;51.994;5.692;2023-11-21T04:07:11;8.20;99.90
22734;DHT22;11534;51.994;5.692;2023-11-21T04:09:39;8.30;99.90
22734;DHT22;11534;51.994;5.692;2023-11-21T04:12:05;8.30;99.90
22734;DHT22;11534;51.994;5.692;2023-11-21T04:14:30;8.30;99.90
22734;DHT22;11534;51.994;5.692;2023-11-21T04:16:57;8.30;99.90
22734;DHT22;11534;51.994;5.692;2023-11-21T04:19:22;8.30;99.90
22734;DHT22;11534;51.994;5.692;2023-11-21T04:21:48;8.30;99.90
22734;DHT22;11534;51.994;5.692;2023-11-21T04:24:14;8.30;99.90
22734;DHT22;11534;51.994;5.692;2023-11-21T04:26:39;8.30;99.90
22734;DHT22;11534;51.994;5.692;2023-11-21T04:29:05;8.30;99.90
22734;DHT22;11534;51.994;5.692;2023-11-21T04:31:31;8.30;99.90
22734;DHT22;11534;51.994;5.692;2023-11-21T04:33:57;8.30;99.90
22734;DHT22;11534;51.994;5.692;2023-11-21T04:36:23;8.30;99.90
22734;DHT22;11534;51.994;5.692;2023-11-21T04:38:48;8.30;99.90
22734;DHT22;11534;51.994;5.692;2023-11-21T04:41:14;8.30;99.90
22734;DHT22;11534;51.994;5.692;2023-11-21T04:43:40;8.40;99.90
22734;DHT22;11534;51.994;5.692;2023-11-21T04:46:05;8.30;99.90
22734;DHT22;11534;51.994;5.692;2023-11-21T04:48:32;8.40;99.90
22734;DHT22;11534;51.994;5.692;2023-11-21T04:50:58;8.40;99.90
22734;DHT22;11534;51.994;5.692;2023-11-21T04:53:24;8.40;99.90
22734;DHT22;11534;51.994;5.692;2023-11-21T04:58:26;8.40;99.90
22734;DHT22;11534;51.994;5.692;2023-11-21T05:00:52;8.40;99.90
22734;DHT22;11534;51.994;5.692;2023-11-21T05:03:17;8.40;99.90
22734;DHT22;11534;51.994;5.692;2023-11-21T05:05:43;8.40;99.90
22734;DHT22;11534;51.994;5.692;2023-11-21T05:08:09;8.40;99.90
22734;DHT22;11534;51.994;5.692;2023-11-21T05:10:34;8.40;99.90
22734;DHT22;11534;51.994;5.692;2023-11-21T05:13:03;8.40;99.90
22734;DHT22;11534;51.994;5.692;2023-11-21T05:15:29;8.40;99.90
22734;DHT22;11534;51.994;5.692;2023-11-21T05:17:54;8.40;99.90
22734;DHT22;11534;51.994;5.692;2023-11-21T05:20:20;8.40;99.90
22734;DHT22;11534;51.994;5.692;2023-11-21T05:22:50;8.50;99.90
22734;DHT22;11534;51.994;5.692;2023-11-21T05:25:16;8.40;99.90
22734;DHT22;11534;51.994;5.692;2023-11-21T05:27:44;8.50;99.90
22734;DHT22;11534;51.994;5.692;2023-11-21T05:30:10;8.50;99.90
22734;DHT22;11534;51.994;5.692;2023-11-21T05:32:38;8.50;99.90
22734;DHT22;11534;51.994;5.692;2023-11-21T05:35:04;8.50;99.90
22734;DHT22;11534;51.994;5.692;2023-11-21T05:37:35;8.50;99.90
22734;DHT22;11534;51.994;5.692;2023-11-21T05:40:01;8.60;99.90
22734;DHT22;11534;51.994;5.692;2023-11-21T05:42:31;8.50;99.90
22734;DHT22;11534;51.994;5.692;2023-11-21T05:44:57;8.60;99.90
22734;DHT22;11534;51.994;5.692;2023-11-21T05:47:43;8.60;99.90
22734;DHT22;11534;51.994;5.692;2023-11-21T05:50:12;8.60;99.90
22734;DHT22;11534;51.994;5.692;2023-11-21T05:52:40;8.60;99.90
22734;DHT22;11534;51.994;5.692;2023-11-21T05:55:07;8.60;99.90
22734;DHT22;11534;51.994;5.692;2023-11-21T05:57:34;8.60;99.90
22734;DHT22;11534;51.994;5.692;2023-11-21T06:00:11;8.60;99.90
22734;DHT22;11534;51.994;5.692;2023-11-21T06:02:52;8.60;99.90
22734;DHT22;11534;51.994;5.692;2023-11-21T06:05:19;8.60;99.90
22734;DHT22;11534;51.994;5.692;2023-11-21T06:07:45;8.60;99.90
22734;DHT22;11534;51.994;5.692;2023-11-21T06:10:11;8.70;99.90
22734;DHT22;11534;51.994;5.692;2023-11-21T06:15:15;8.70;99.90
22734;DHT22;11534;51.994;5.692;2023-11-21T06:17:42;8.60;99.90
22734;DHT22;11534;51.994;5.692;2023-11-21T06:20:09;8.70;99.90
22734;DHT22;11534;51.994;5.692;2023-11-21T06:22:36;8.70;99.90
22734;DHT22;11534;51.994;5.692;2023-11-21T06:25:03;8.60;99.90
22734;DHT22;11534;51.994;5.692;2023-11-21T06:27:44;8.60;99.90
22734;DHT22;11534;51.994;5.692;2023-11-21T06:30:10;8.70;99.90
22734;DHT22;11534;51.994;5.692;2023-11-21T06:32:37;8.70;99.90
22734;DHT22;11534;51.994;5.692;2023-11-21T06:35:07;8.70;99.90
22734;DHT22;11534;51.994;5.692;2023-11-21T06:37:33;8.70;99.90
22734;DHT22;11534;51.994;5.692;2023-11-21T06:40:00;8.70;99.90
22734;DHT22;11534;51.994;5.692;2023-11-21T06:42:26;8.70;99.90
22734;DHT22;11534;51.994;5.692;2023-11-21T06:57:49;8.80;99.90
22734;DHT22;11534;51.994;5.692;2023-11-21T07:00:17;8.70;99.90
22734;DHT22;11534;51.994;5.692;2023-11-21T07:02:44;8.80;99.90
22734;DHT22;11534;51.994;5.692;2023-11-21T07:05:10;8.80;99.90
22734;DHT22;11534;51.994;5.692;2023-11-21T07:07:36;8.80;99.90
22734;DHT22;11534;51.994;5.692;2023-11-21T07:10:03;8.80;99.90
22734;DHT22;11534;51.994;5.692;2023-11-21T07:12:32;8.80;99.90
22734;DHT22;11534;51.994;5.692;2023-11-21T07:17:40;8.90;99.90
22734;DHT22;11534;51.994;5.692;2023-11-21T07:20:07;8.90;99.90
22734;DHT22;11534;51.994;5.692;2023-11-21T07:22:32;8.90;99.90
22734;DHT22;11534;51.994;5.692;2023-11-21T07:24:58;8.90;99.90
22734;DHT22;11534;51.994;5.692;2023-11-21T07:27:24;8.90;99.90
22734;DHT22;11534;51.994;5.692;2023-11-21T07:29:49;8.90;99.90
22734;DHT22;11534;51.994;5.692;2023-11-21T07:32:15;8.90;99.90
22734;DHT22;11534;51.994;5.692;2023-11-21T07:34:41;8.80;99.90
22734;DHT22;11534;51.994;5.692;2023-11-21T07:37:07;8.90;99.90
22734;DHT22;11534;51.994;5.692;2023-11-21T07:39:35;8.90;99.90
22734;DHT22;11534;51.994;5.692;2023-11-21T07:42:02;8.90;99.90
22734;DHT22;11534;51.994;5.692;2023-11-21T07:47:02;9.00;99.90
22734;DHT22;11534;51.994;5.692;2023-11-21T07:49:30;9.00;99.90
22734;DHT22;11534;51.994;5.692;2023-11-21T07:51:56;9.00;99.90
22734;DHT22;11534;51.994;5.692;2023-11-21T07:54:21;9.00;99.90
22734;DHT22;11534;51.994;5.692;2023-11-21T07:56:47;9.00;99.90
22734;DHT22;11534;51.994;5.692;2023-11-21T07:59:13;9.00;99.90
22734;DHT22;11534;51.994;5.692;2023-11-21T08:01:39;9.00;99.90
22734;DHT22;11534;51.994;5.692;2023-11-21T08:04:08;9.10;99.90
22734;DHT22;11534;51.994;5.692;2023-11-21T08:06:34;9.10;99.90
22734;DHT22;11534;51.994;5.692;2023-11-21T08:09:00;9.10;99.90
22734;DHT22;11534;51.994;5.692;2023-11-21T08:11:25;9.00;99.90
22734;DHT22;11534;51.994;5.692;2023-11-21T08:13:57;9.10;99.90
22734;DHT22;11534;51.994;5.692;2023-11-21T08:16:23;9.10;99.90
22734;DHT22;11534;51.994;5.692;2023-11-21T08:18:49;9.10;99.90
22734;DHT22;11534;51.994;5.692;2023-11-21T08:21:15;9.10;99.90
22734;DHT22;11534;51.994;5.692;2023-11-21T08:23:40;9.10;99.90
22734;DHT22;11534;51.994;5.692;2023-11-21T08:26:07;9.10;99.90
22734;DHT22;11534;51.994;5.692;2023-11-21T08:28:34;9.10;99.90
22734;DHT22;11534;51.994;5.692;2023-11-21T08:31:01;9.20;99.90
22734;DHT22;11534;51.994;5.692;2023-11-21T08:33:26;9.20;99.90
22734;DHT22;11534;51.994;5.692;2023-11-21T08:35:52;9.20;99.90
22734;DHT22;11534;51.994;5.692;2023-11-21T08:38:18;9.20;99.90
22734;DHT22;11534;51.994;5.692;2023-11-21T08:40:43;9.20;99.90
22734;DHT22;11534;51.994;5.692;2023-11-21T08:43:09;9.30;99.90
22734;DHT22;11534;51.994;5.692;2023-11-21T08:45:37;9.30;99.90
22734;DHT22;11534;51.994;5.692;2023-11-21T08:48:03;9.30;99.90
22734;DHT22;11534;51.994;5.692;2023-11-21T08:50:29;9.30;99.90
22734;DHT22;11534;51.994;5.692;2023-11-21T08:52:55;9.30;99.90
22734;DHT22;11534;51.994;5.692;2023-11-21T08:55:21;9.30;99.90
22734;DHT22;11534;51.994;5.692;2023-11-21T08:57:47;9.40;99.90
22734;DHT22;11534;51.994;5.692;2023-11-21T09:00:13;9.40;99.90
22734;DHT22;11534;51.994;5.692;2023-11-21T09:05:16;9.40;99.90
22734;DHT22;11534;51.994;5.692;2023-11-21T09:07:43;9.40;99.90
22734;DHT22;11534;51.994;5.692;2023-11-21T09:10:09;9.40;99.90
22734;DHT22;11534;51.994;5.692;2023-11-21T09:12:36;9.40;99.90
22734;DHT22;11534;51.994;5.692;2023-11-21T09:15:04;9.40;99.90
22734;DHT22;11534;51.994;5.692;2023-11-21T09:17:30;9.50;99.90
22734;DHT22;11534;51.994;5.692;2023-11-21T09:19:56;9.50;99.90
22734;DHT22;11534;51.994;5.692;2023-11-21T09:22:22;9.40;99.90
22734;DHT22;11534;51.994;5.692;2023-11-21T09:24:50;9.50;99.90
22734;DHT22;11534;51.994;5.692;2023-11-21T09:27:16;9.50;99.90
22734;DHT22;11534;51.994;5.692;2023-11-21T09:29:43;9.50;99.90
22734;DHT22;11534;51.994;5.692;2023-11-21T09:32:08;9.50;99.90
22734;DHT22;11534;51.994;5.692;2023-11-21T09:34:38;9.60;99.90
22734;DHT22;11534;51.994;5.692;2023-11-21T09:37:04;9.60;99.90
22734;DHT22;11534;51.994;5.692;2023-11-21T09:39:31;9.70;99.90
22734;DHT22;11534;51.994;5.692;2023-11-21T09:42:25;9.70;99.90
22734;DHT22;11534;51.994;5.692;2023-11-21T09:45:18;9.70;99.90
22734;DHT22;11534;51.994;5.692;2023-11-21T09:47:46;9.70;99.90
22734;DHT22;11534;51.994;5.692;2023-11-21T09:50:17;9.80;99.90
22734;DHT22;11534;51.994;5.692;2023-11-21T09:52:57;9.80;99.90
22734;DHT22;11534;51.994;5.692;2023-11-21T09:55:26;9.90;99.90
22734;DHT22;11534;51.994;5.692;2023-11-21T09:57:56;10.00;99.90
22734;DHT22;11534;51.994;5.692;2023-11-21T10:00:22;10.10;99.90
22734;DHT22;11534;51.994;5.692;2023-11-21T10:02:49;10.10;99.90
22734;DHT22;11534;51.994;5.692;2023-11-21T10:05:16;10.20;99.90
22734;DHT22;11534;51.994;5.692;2023-11-21T10:07:45;10.20;99.90
22734;DHT22;11534;51.994;5.692;2023-11-21T10:10:13;10.20;99.90
22734;DHT22;11534;51.994;5.692;2023-11-21T10:15:39;10.20;99.90
22734;DHT22;11534;51.994;5.692;2023-11-21T10:18:09;10.20;99.90
22734;DHT22;11534;51.994;5.692;2023-11-21T10:20:36;10.10;99.90
22734;DHT22;11534;51.994;5.692;2023-11-21T10:23:03;10.20;99.90
22734;DHT22;11534;51.994;5.692;2023-11-21T10:25:32;10.10;99.90
22734;DHT22;11534;51.994;5.692;2023-11-21T10:27:59;10.10;99.90
22734;DHT22;11534;51.994;5.692;2023-11-21T10:30:34;10.10;99.90
22734;DHT22;11534;51.994;5.692;2023-11-21T10:33:07;10.10;99.90
22734;DHT22;11534;51.994;5.692;2023-11-21T10:35:46;10.10;99.90
22734;DHT22;11534;51.994;5.692;2023-11-21T10:38:13;10.10;99.90
22734;DHT22;11534;51.994;5.692;2023-11-21T10:40:40;10.10;99.90
22734;DHT22;11534;51.994;5.692;2023-11-21T10:43:08;10.00;99.90
22734;DHT22;11534;51.994;5.692;2023-11-21T10:45:39;10.10;99.90
22734;DHT22;11534;51.994;5.692;2023-11-21T10:50:40;10.00;99.90
22734;DHT22;11534;51.994;5.692;2023-11-21T10:55:41;10.00;99.90
22734;DHT22;11534;51.994;5.692;2023-11-21T10:58:11;10.00;99.90
22734;DHT22;11534;51.994;5.692;2023-11-21T11:47:32;10.20;99.90
22734;DHT22;11534;51.994;5.692;2023-11-21T11:50:08;10.20;99.90
22734;DHT22;11534;51.994;5.692;2023-11-21T12:08:07;10.20;99.90
22734;DHT22;11534;51.994;5.692;2023-11-21T12:10:36;10.20;99.90
22734;DHT22;11534;51.994;5.692;2023-11-21T12:13:07;10.20;99.90
22734;DHT22;11534;51.994;5.692;2023-11-21T12:15:35;10.20;99.90
22734;DHT22;11534;51.994;5.692;2023-11-21T12:18:02;10.20;99.90
22734;DHT22;11534;51.994;5.692;2023-11-21T12:20:30;10.20;99.90
22734;DHT22;11534;51.994;5.692;2023-11-21T12:23:00;10.20;99.90
22734;DHT22;11534;51.994;5.692;2023-11-21T12:25:30;10.30;99.90
22734;DHT22;11534;51.994;5.692;2023-11-21T12:30:36;10.30;99.90
22734;DHT22;11534;51.994;5.692;2023-11-21T12:33:04;10.30;99.90
22734;DHT22;11534;51.994;5.692;2023-11-21T12:35:33;10.30;99.90
22734;DHT22;11534;51.994;5.692;2023-11-21T12:43:12;10.30;99.90
22734;DHT22;11534;51.994;5.692;2023-11-21T12:51:23;10.20;99.90
22734;DHT22;11534;51.994;5.692;2023-11-21T13:12:03;10.10;99.90
22734;DHT22;11534;51.994;5.692;2023-11-21T13:14:30;10.20;99.90
22734;DHT22;11534;51.994;5.692;2023-11-21T13:19:32;10.20;99.90
22734;DHT22;11534;51.994;5.692;2023-11-21T13:24:33;10.20;99.90
22734;DHT22;11534;51.994;5.692;2023-11-21T13:27:09;10.20;99.90
22734;DHT22;11534;51.994;5.692;2023-11-21T13:29:35;10.10;99.90
22734;DHT22;11534;51.994;5.692;2023-11-21T13:32:04;10.20;99.90
22734;DHT22;11534;51.994;5.692;2023-11-21T13:34:50;10.20;99.90
22734;DHT22;11534;51.994;5.692;2023-11-21T13:37:18;10.20;99.90
22734;DHT22;11534;51.994;5.692;2023-11-21T13:39:44;10.30;99.90
22734;DHT22;11534;51.994;5.692;2023-11-21T13:42:12;10.40;99.90
22734;DHT22;11534;51.994;5.692;2023-11-21T13:44:39;10.30;99.90
22734;DHT22;11534;51.994;5.692;2023-11-21T13:47:09;10.40;99.90
22734;DHT22;11534;51.994;5.692;2023-11-21T13:49:35;10.40;99.90
22734;DHT22;11534;51.994;5.692;2023-11-21T13:52:01;10.50;99.90
22734;DHT22;11534;51.994;5.692;2023-11-21T13:54:30;10.40;99.90
22734;DHT22;11534;51.994;5.692;2023-11-21T13:56:56;10.40;99.90
22734;DHT22;11534;51.994;5.692;2023-11-21T13:59:22;10.40;99.90
22734;DHT22;11534;51.994;5.692;2023-11-21T14:01:57;10.40;99.90
22734;DHT22;11534;51.994;5.692;2023-11-21T14:04:25;10.40;99.90
22734;DHT22;11534;51.994;5.692;2023-11-21T14:07:10;10.40;99.90
22734;DHT22;11534;51.994;5.692;2023-11-21T14:09:54;10.40;99.90
22734;DHT22;11534;51.994;5.692;2023-11-21T14:12:20;10.40;99.90
22734;DHT22;11534;51.994;5.692;2023-11-21T14:14:45;10.30;99.90
22734;DHT22;11534;51.994;5.692;2023-11-21T14:17:13;10.30;99.90
22734;DHT22;11534;51.994;5.692;2023-11-21T14:19:38;10.20;99.90
22734;DHT22;11534;51.994;5.692;2023-11-21T14:22:09;10.10;99.90
22734;DHT22;11534;51.994;5.692;2023-11-21T14:24:35;10.10;99.90
22734;DHT22;11534;51.994;5.692;2023-11-21T14:27:02;10.00;99.90
22734;DHT22;11534;51.994;5.692;2023-11-21T14:29:29;10.00;99.90
22734;DHT22;11534;51.994;5.692;2023-11-21T14:31:56;10.00;99.90
22734;DHT22;11534;51.994;5.692;2023-11-21T14:34:23;9.90;99.90
22734;DHT22;11534;51.994;5.692;2023-11-21T14:36:49;9.90;99.90
22734;DHT22;11534;51.994;5.692;2023-11-21T14:39:15;9.90;99.90
22734;DHT22;11534;51.994;5.692;2023-11-21T14:41:54;9.90;99.90
22734;DHT22;11534;51.994;5.692;2023-11-21T14:44:24;9.90;99.90
22734;DHT22;11534;51.994;5.692;2023-11-21T14:46:53;9.80;99.90
22734;DHT22;11534;51.994;5.692;2023-11-21T14:49:20;9.80;99.90
22734;DHT22;11534;51.994;5.692;2023-11-21T14:51:48;9.80;99.90
22734;DHT22;11534;51.994;5.692;2023-11-21T14:54:32;9.70;99.90
22734;DHT22;11534;51.994;5.692;2023-11-21T14:57:10;9.70;99.90
22734;DHT22;11534;51.994;5.692;2023-11-21T14:59:43;9.70;99.90
22734;DHT22;11534;51.994;5.692;2023-11-21T15:02:11;9.60;99.90
22734;DHT22;11534;51.994;5.692;2023-11-21T15:04:43;9.60;99.90
22734;DHT22;11534;51.994;5.692;2023-11-21T15:07:10;9.50;99.90
22734;DHT22;11534;51.994;5.692;2023-11-21T15:09:37;9.50;99.90
22734;DHT22;11534;51.994;5.692;2023-11-21T15:12:10;9.40;99.90
22734;DHT22;11534;51.994;5.692;2023-11-21T15:14:39;9.40;99.90
22734;DHT22;11534;51.994;5.692;2023-11-21T15:17:05;9.30;99.90
22734;DHT22;11534;51.994;5.692;2023-11-21T15:19:32;9.30;99.90
22734;DHT22;11534;51.994;5.692;2023-11-21T15:21:58;9.40;99.90
22734;DHT22;11534;51.994;5.692;2023-11-21T15:24:24;9.30;99.90
22734;DHT22;11534;51.994;5.692;2023-11-21T15:26:50;9.30;99.90
22734;DHT22;11534;51.994;5.692;2023-11-21T15:29:16;9.20;99.90
22734;DHT22;11534;51.994;5.692;2023-11-21T15:31:42;9.20;99.90
22734;DHT22;11534;51.994;5.692;2023-11-21T15:34:14;9.20;99.90
22734;DHT22;11534;51.994;5.692;2023-11-21T15:36:40;9.10;99.90
22734;DHT22;11534;51.994;5.692;2023-11-21T15:39:05;9.10;99.90
22734;DHT22;11534;51.994;5.692;2023-11-21T15:41:33;9.10;99.90
22734;DHT22;11534;51.994;5.692;2023-11-21T15:43:59;9.00;99.90
22734;DHT22;11534;51.994;5.692;2023-11-21T15:46:25;9.00;99.90
22734;DHT22;11534;51.994;5.692;2023-11-21T15:48:50;9.00;99.90
22734;DHT22;11534;51.994;5.692;2023-11-21T15:51:20;8.90;99.90
22734;DHT22;11534;51.994;5.692;2023-11-21T15:53:45;9.00;99.90
22734;DHT22;11534;51.994;5.692;2023-11-21T15:56:11;9.00;99.90
22734;DHT22;11534;51.994;5.692;2023-11-21T15:58:41;8.90;99.90
22734;DHT22;11534;51.994;5.692;2023-11-21T16:01:11;8.90;99.90
22734;DHT22;11534;51.994;5.692;2023-11-21T16:03:38;8.90;99.90
22734;DHT22;11534;51.994;5.692;2023-11-21T16:21:37;8.60;99.90
22734;DHT22;11534;51.994;5.692;2023-11-21T16:24:03;8.50;99.90
22734;DHT22;11534;51.994;5.692;2023-11-21T16:26:28;8.60;99.90
22734;DHT22;11534;51.994;5.692;2023-11-21T16:28:56;8.60;99.90
22734;DHT22;11534;51.994;5.692;2023-11-21T17:18:54;7.80;99.90
22734;DHT22;11534;51.994;5.692;2023-11-21T17:23:55;7.70;99.90
22734;DHT22;11534;51.994;5.692;2023-11-21T17:26:21;7.70;99.90
22734;DHT22;11534;51.994;5.692;2023-11-21T17:28:46;7.60;99.90
22734;DHT22;11534;51.994;5.692;2023-11-21T17:31:12;7.60;99.90
22734;DHT22;11534;51.994;5.692;2023-11-21T17:33:38;7.60;99.90
22734;DHT22;11534;51.994;5.692;2023-11-21T17:36:04;7.60;99.90
22734;DHT22;11534;51.994;5.692;2023-11-21T17:38:30;7.60;99.90
22734;DHT22;11534;51.994;5.692;2023-11-21T17:40:56;7.50;99.90
22734;DHT22;11534;51.994;5.692;2023-11-21T17:43:21;7.50;99.90
22734;DHT22;11534;51.994;5.692;2023-11-21T17:45:47;7.50;99.90
22734;DHT22;11534;51.994;5.692;2023-11-21T17:48:14;7.50;99.90
22734;DHT22;11534;51.994;5.692;2023-11-21T17:53:15;7.60;99.90
22734;DHT22;11534;51.994;5.692;2023-11-21T17:55:40;7.60;99.90
22734;DHT22;11534;51.994;5.692;2023-11-21T17:58:06;7.60;99.90
22734;DHT22;11534;51.994;5.692;2023-11-21T18:00:32;7.60;99.90
22734;DHT22;11534;51.994;5.692;2023-11-21T18:02:58;7.60;99.90
22734;DHT22;11534;51.994;5.692;2023-11-21T18:05:24;7.60;99.90
22734;DHT22;11534;51.994;5.692;2023-11-21T18:07:51;7.70;99.90
22734;DHT22;11534;51.994;5.692;2023-11-21T18:10:17;7.60;99.90
22734;DHT22;11534;51.994;5.692;2023-11-21T18:12:43;7.70;99.90
22734;DHT22;11534;51.994;5.692;2023-11-21T18:15:09;7.70;99.90
22734;DHT22;11534;51.994;5.692;2023-11-21T18:17:35;7.80;99.90
22734;DHT22;11534;51.994;5.692;2023-11-21T18:20:01;7.80;99.90
22734;DHT22;11534;51.994;5.692;2023-11-21T18:22:27;7.80;99.90
22734;DHT22;11534;51.994;5.692;2023-11-21T18:24:53;7.80;99.90
22734;DHT22;11534;51.994;5.692;2023-11-21T18:27:20;7.80;99.90
22734;DHT22;11534;51.994;5.692;2023-11-21T18:29:46;7.80;99.90
22734;DHT22;11534;51.994;5.692;2023-11-21T18:32:12;7.80;99.90
22734;DHT22;11534;51.994;5.692;2023-11-21T18:34:41;7.80;99.90
22734;DHT22;11534;51.994;5.692;2023-11-21T18:37:08;7.80;99.90
22734;DHT22;11534;51.994;5.692;2023-11-21T18:39:34;7.90;99.90
22734;DHT22;11534;51.994;5.692;2023-11-21T18:42:00;7.80;99.90
22734;DHT22;11534;51.994;5.692;2023-11-21T18:44:25;7.90;99.90
22734;DHT22;11534;51.994;5.692;2023-11-21T18:46:51;7.80;99.90
22734;DHT22;11534;51.994;5.692;2023-11-21T18:49:21;7.80;99.90
22734;DHT22;11534;51.994;5.692;2023-11-21T18:51:47;7.70;99.90
22734;DHT22;11534;51.994;5.692;2023-11-21T18:54:15;7.70;99.90
22734;DHT22;11534;51.994;5.692;2023-11-21T18:56:41;7.70;99.90
22734;DHT22;11534;51.994;5.692;2023-11-21T18:59:11;7.60;99.90
22734;DHT22;11534;51.994;5.692;2023-11-21T19:01:40;7.50;99.90
22734;DHT22;11534;51.994;5.692;2023-11-21T19:04:07;7.50;99.90